Time;durP1;ratioP1;P1;durP2;ratioP2;P2;SDS_P1;SDS_P2;PMS_P1;PMS_P2;Temp;Humidity;BMP_temperature;BMP_pressure;BME280_temperature;BME280_humidity;BME280_pressure;Samples;Min_cycle;Max_cycle;Signal;HPM_P1;HPM_P2
2022/11/17 00:00:42;;;;;;;4.03;2.92;;;;;;;;;;10327635;28;20336;-62
2022/11/17 00:05:43;;;;;;;4.40;2.92;;;;;;;;;;10327825;28;20027;-58
2022/11/17 00:10:43;;;;;;;5.25;2.70;;;;;;;;;;10327406;28;20540;-64
2022/11/17 00:15:44;;;;;;;4.80;3.20;;;;;;;;;;10327638;28;20108;-66
2022/11/17 00:26:04;;;;;;;4.82;2.75;;;;;;;;;;10328494;28;20027;-65
2022/11/17 00:36:25;;;;;;;5.82;2.70;;;;;;;;;;10327846;28;20042;-64
2022/11/17 00:41:25;;;;;;;4.03;2.72;;;;;;;;;;10326991;28;20076;-66
2022/11/17 00:46:26;;;;;;;4.32;2.90;;;;;;;;;;10327209;28;20532;-66
2022/11/17 00:51:28;;;;;;;4.05;3.03;;;;;;;;;;10327231;28;20038;-65
2022/11/17 00:56:28;;;;;;;7.18;3.22;;;;;;;;;;10335322;28;20035;-61
2022/11/17 01:01:29;;;;;;;3.92;2.60;;;;;;;;;;10335696;28;20057;-64
2022/11/17 01:06:43;;;;;;;4.28;2.55;;;;;;;;;;10334679;28;20105;-64
2022/11/17 01:11:44;;;;;;;3.55;2.85;;;;;;;;;;10334054;28;20056;-64
2022/11/17 01:16:45;;;;;;;4.53;2.72;;;;;;;;;;10333944;28;20284;-64
2022/11/17 01:21:45;;;;;;;3.88;2.67;;;;;;;;;;10333772;28;20250;-63
2022/11/17 01:26:46;;;;;;;3.00;2.30;;;;;;;;;;10332470;28;20109;-66
2022/11/17 01:31:50;;;;;;;3.50;2.90;;;;;;;;;;10333435;28;20061;-58
2022/11/17 01:42:23;;;;;;;3.30;2.67;;;;;;;;;;10333220;28;20142;-65
2022/11/17 01:47:31;;;;;;;3.15;2.70;;;;;;;;;;10332843;28;20102;-67
2022/11/17 01:52:35;;;;;;;4.70;2.75;;;;;;;;;;10333035;28;20034;-66
2022/11/17 01:57:49;;;;;;;3.00;2.70;;;;;;;;;;10332942;28;20026;-67
2022/11/17 02:02:50;;;;;;;4.05;2.60;;;;;;;;;;10332518;28;20390;-67
2022/11/17 02:07:53;;;;;;;3.92;2.58;;;;;;;;;;10331178;28;20026;-67
2022/11/17 02:12:54;;;;;;;2.80;2.45;;;;;;;;;;10331264;28;20037;-68
2022/11/17 02:17:56;;;;;;;3.78;2.70;;;;;;;;;;10330559;28;20018;-66
2022/11/17 02:23:25;;;;;;;4.63;2.38;;;;;;;;;;10330704;28;20038;-66
2022/11/17 02:28:34;;;;;;;3.38;2.72;;;;;;;;;;10328292;28;20066;-66
2022/11/17 02:33:47;;;;;;;3.58;2.60;;;;;;;;;;10331233;28;20502;-67
2022/11/17 02:39:16;;;;;;;3.45;2.85;;;;;;;;;;10331297;28;20037;-65
2022/11/17 02:44:35;;;;;;;2.95;2.40;;;;;;;;;;10331033;28;20041;-67
2022/11/17 02:49:45;;;;;;;3.78;2.88;;;;;;;;;;10329898;28;20066;-67
2022/11/17 02:54:46;;;;;;;4.57;2.55;;;;;;;;;;10329723;28;20050;-64
2022/11/17 02:59:48;;;;;;;4.00;2.33;;;;;;;;;;10330557;28;20023;-65
2022/11/17 03:05:17;;;;;;;4.18;2.80;;;;;;;;;;10329972;28;20433;-67
2022/11/17 03:10:53;;;;;;;4.30;2.70;;;;;;;;;;10328575;28;20085;-60
2022/11/17 03:16:13;;;;;;;4.38;2.75;;;;;;;;;;10327935;28;20515;-61
2022/11/17 03:22:08;;;;;;;4.13;2.88;;;;;;;;;;10329090;28;20448;-58
2022/11/17 03:27:18;;;;;;;3.08;2.65;;;;;;;;;;10295300;28;20482;-63
2022/11/17 03:32:21;;;;;;;3.97;2.45;;;;;;;;;;10312802;23;20133;-69
2022/11/17 03:37:25;;;;;;;3.95;2.75;;;;;;;;;;10296395;28;20030;-68
2022/11/17 03:42:29;;;;;;;4.40;2.80;;;;;;;;;;10327386;28;20022;-68
2022/11/17 03:47:32;;;;;;;2.80;2.60;;;;;;;;;;10328178;28;20034;-68
2022/11/17 03:52:33;;;;;;;3.65;2.58;;;;;;;;;;10327348;28;20117;-68
2022/11/17 03:57:48;;;;;;;4.57;2.30;;;;;;;;;;10326638;28;20046;-68
2022/11/17 04:02:54;;;;;;;3.88;2.83;;;;;;;;;;10327160;28;20037;-68
2022/11/17 04:07:55;;;;;;;2.78;2.08;;;;;;;;;;10326597;28;20026;-68
2022/11/17 04:18:14;;;;;;;2.90;2.60;;;;;;;;;;10327458;28;20491;-68
2022/11/17 04:23:15;;;;;;;3.03;2.25;;;;;;;;;;10327856;28;20063;-68
2022/11/17 04:33:36;;;;;;;2.80;2.45;;;;;;;;;;10336258;28;20042;-69
2022/11/17 04:38:48;;;;;;;2.97;2.30;;;;;;;;;;10335374;28;20473;-69
2022/11/17 04:43:49;;;;;;;3.20;2.20;;;;;;;;;;10335823;28;20096;-69
2022/11/17 04:48:52;;;;;;;3.45;2.38;;;;;;;;;;10335558;28;20030;-69
2022/11/17 04:53:53;;;;;;;3.53;2.88;;;;;;;;;;10334783;28;20085;-69
2022/11/17 04:58:54;;;;;;;2.90;2.33;;;;;;;;;;10334653;28;20093;-69
2022/11/17 05:04:01;;;;;;;4.20;2.60;;;;;;;;;;10334505;28;20023;-68
2022/11/17 05:09:11;;;;;;;3.75;2.58;;;;;;;;;;10334094;28;20425;-68
2022/11/17 05:14:14;;;;;;;3.22;2.50;;;;;;;;;;10334141;28;20040;-69
2022/11/17 05:19:22;;;;;;;3.42;2.42;;;;;;;;;;10334359;28;20190;-68
2022/11/17 05:24:23;;;;;;;3.28;2.38;;;;;;;;;;10334185;28;20025;-68
2022/11/17 05:29:23;;;;;;;3.72;2.38;;;;;;;;;;10333323;28;20399;-69
2022/11/17 05:34:24;;;;;;;3.30;2.40;;;;;;;;;;10333242;28;20026;-68
2022/11/17 05:39:24;;;;;;;2.80;2.20;;;;;;;;;;10333084;28;20026;-69
2022/11/17 05:44:25;;;;;;;2.90;2.17;;;;;;;;;;10332945;28;20071;-68
2022/11/17 05:49:25;;;;;;;3.45;2.28;;;;;;;;;;10333240;28;20041;-68
2022/11/17 05:54:26;;;;;;;3.28;2.40;;;;;;;;;;10332538;28;20073;-69
2022/11/17 05:59:44;;;;;;;3.33;2.47;;;;;;;;;;10332554;28;20030;-67
2022/11/17 06:04:47;;;;;;;3.22;2.35;;;;;;;;;;10331779;28;20562;-71
2022/11/17 06:09:48;;;;;;;3.30;2.10;;;;;;;;;;10331781;28;20030;-70
2022/11/17 06:14:49;;;;;;;2.65;2.25;;;;;;;;;;10331851;28;20428;-70
2022/11/17 06:19:59;;;;;;;2.13;1.83;;;;;;;;;;10331523;28;20030;-70
2022/11/17 06:25:02;;;;;;;4.05;2.67;;;;;;;;;;10330125;28;20089;-69
2022/11/17 06:30:05;;;;;;;3.13;2.10;;;;;;;;;;10331180;28;20061;-68
2022/11/17 06:35:08;;;;;;;8.02;2.40;;;;;;;;;;10330319;28;20379;-68
2022/11/17 06:40:10;;;;;;;9.52;2.53;;;;;;;;;;10330267;28;20024;-69
2022/11/17 06:45:11;;;;;;;3.08;2.53;;;;;;;;;;10331014;28;20034;-68
2022/11/17 06:50:11;;;;;;;8.52;2.80;;;;;;;;;;10329937;28;20390;-68
2022/11/17 06:55:12;;;;;;;5.75;3.00;;;;;;;;;;10329187;28;20033;-68
2022/11/17 07:00:17;;;;;;;5.93;2.65;;;;;;;;;;10329955;28;20026;-67
2022/11/17 07:05:17;;;;;;;9.38;2.97;;;;;;;;;;10328923;28;20022;-69
2022/11/17 07:10:18;;;;;;;4.35;2.85;;;;;;;;;;10329762;28;20038;-67
2022/11/17 07:15:19;;;;;;;12.27;3.20;;;;;;;;;;10329512;28;20033;-67
2022/11/17 07:20:19;;;;;;;11.10;3.60;;;;;;;;;;10329143;28;20091;-69
2022/11/17 07:25:20;;;;;;;7.18;3.20;;;;;;;;;;10329154;28;20088;-69
2022/11/17 07:30:20;;;;;;;10.73;3.63;;;;;;;;;;10328396;28;20054;-68
2022/11/17 07:35:21;;;;;;;8.43;3.35;;;;;;;;;;10328686;28;20033;-69
2022/11/17 07:40:22;;;;;;;8.25;3.72;;;;;;;;;;10328358;28;20030;-69
2022/11/17 07:45:23;;;;;;;7.65;3.30;;;;;;;;;;10328336;28;20038;-69
2022/11/17 07:50:25;;;;;;;6.22;3.63;;;;;;;;;;10328442;28;20026;-69
2022/11/17 07:55:25;;;;;;;4.82;3.00;;;;;;;;;;10328038;28;20258;-69
2022/11/17 08:00:29;;;;;;;7.50;3.65;;;;;;;;;;10328297;28;20294;-68
2022/11/17 08:05:34;;;;;;;11.05;3.60;;;;;;;;;;10326842;28;20038;-69
2022/11/17 08:10:34;;;;;;;6.50;3.33;;;;;;;;;;10326271;28;20316;-69
2022/11/17 08:15:35;;;;;;;7.32;3.08;;;;;;;;;;10327576;28;20214;-69
2022/11/17 08:20:35;;;;;;;8.82;3.58;;;;;;;;;;10327292;28;20026;-69
2022/11/17 08:25:36;;;;;;;7.55;4.22;;;;;;;;;;10327052;28;20061;-69
2022/11/17 08:30:37;;;;;;;8.77;3.53;;;;;;;;;;10326817;28;20121;-69
2022/11/17 08:35:37;;;;;;;5.60;2.90;;;;;;;;;;10327285;28;20090;-69
2022/11/17 08:40:38;;;;;;;6.10;3.53;;;;;;;;;;10327412;28;20105;-68
2022/11/17 08:45:41;;;;;;;5.55;3.10;;;;;;;;;;10327151;28;20065;-69
2022/11/17 08:50:42;;;;;;;10.40;4.28;;;;;;;;;;10325846;28;20358;-69
2022/11/17 08:55:43;;;;;;;9.13;3.30;;;;;;;;;;10327051;28;20030;-69
2022/11/17 09:00:45;;;;;;;3.80;3.38;;;;;;;;;;10326970;28;20382;-67
2022/11/17 09:05:46;;;;;;;8.45;3.55;;;;;;;;;;10326350;28;20430;-67
2022/11/17 09:10:48;;;;;;;6.95;4.03;;;;;;;;;;10326275;28;20035;-67
2022/11/17 09:15:48;;;;;;;6.25;3.97;;;;;;;;;;10331510;28;20049;-67
2022/11/17 09:20:49;;;;;;;9.45;4.47;;;;;;;;;;10334398;28;20030;-68
2022/11/17 09:25:49;;;;;;;9.18;3.72;;;;;;;;;;10333737;28;20368;-69
2022/11/17 09:30:51;;;;;;;5.85;3.67;;;;;;;;;;10333257;28;20418;-69
2022/11/17 09:35:56;;;;;;;4.25;3.67;;;;;;;;;;10333363;28;20065;-69
2022/11/17 09:40:58;;;;;;;6.18;3.70;;;;;;;;;;10333925;28;20035;-69
2022/11/17 09:46:12;;;;;;;6.97;3.40;;;;;;;;;;10332953;28;20030;-69
2022/11/17 09:51:17;;;;;;;5.90;3.75;;;;;;;;;;10331565;28;20489;-69
2022/11/17 09:56:18;;;;;;;6.55;3.83;;;;;;;;;;10332611;28;20109;-69
2022/11/17 10:01:21;;;;;;;5.38;3.80;;;;;;;;;;10331624;28;20030;-69
2022/11/17 10:06:26;;;;;;;6.05;3.80;;;;;;;;;;10331451;28;20037;-69
2022/11/17 10:11:30;;;;;;;5.40;3.78;;;;;;;;;;10332279;28;20034;-69
2022/11/17 10:16:31;;;;;;;5.10;3.75;;;;;;;;;;10332240;28;20046;-69
2022/11/17 10:21:32;;;;;;;4.63;3.97;;;;;;;;;;10330462;28;20410;-69
2022/11/17 10:26:47;;;;;;;6.05;3.85;;;;;;;;;;10329024;28;20026;-69
2022/11/17 10:31:47;;;;;;;5.32;3.90;;;;;;;;;;10330829;28;20058;-69
2022/11/17 10:36:48;;;;;;;5.25;3.85;;;;;;;;;;10332081;28;20034;-69
2022/11/17 10:41:49;;;;;;;6.72;3.85;;;;;;;;;;10330819;28;20386;-69
2022/11/17 10:46:54;;;;;;;4.18;3.70;;;;;;;;;;10331119;28;20029;-69
2022/11/17 10:52:14;;;;;;;4.95;3.67;;;;;;;;;;10329091;28;20056;-69
2022/11/17 10:57:23;;;;;;;7.20;4.05;;;;;;;;;;10329847;28;20035;-69
2022/11/17 11:02:33;;;;;;;5.25;3.90;;;;;;;;;;10328971;28;20093;-69
2022/11/17 11:07:34;;;;;;;5.68;3.45;;;;;;;;;;10328041;28;20541;-68
2022/11/17 11:12:59;;;;;;;4.93;3.72;;;;;;;;;;10328886;28;20027;-68
2022/11/17 11:18:01;;;;;;;5.82;3.80;;;;;;;;;;10329225;28;20027;-69
2022/11/17 11:23:24;;;;;;;4.63;3.80;;;;;;;;;;10329068;28;20030;-69
2022/11/17 11:28:58;;;;;;;4.05;3.53;;;;;;;;;;10328416;28;20113;-68
2022/11/17 11:34:10;;;;;;;5.22;3.60;;;;;;;;;;10327104;28;20037;-69
2022/11/17 11:39:27;;;;;;;4.00;3.60;;;;;;;;;;10327981;28;20049;-69
2022/11/17 11:44:51;;;;;;;4.32;3.60;;;;;;;;;;10328587;28;20066;-69
2022/11/17 11:49:55;;;;;;;5.20;3.60;;;;;;;;;;10327742;28;20078;-68
2022/11/17 11:55:00;;;;;;;6.53;3.88;;;;;;;;;;10326357;28;20102;-69
2022/11/17 12:00:17;;;;;;;3.97;3.58;;;;;;;;;;10327012;28;20032;-68
2022/11/17 12:05:55;;;;;;;3.65;3.28;;;;;;;;;;10326271;28;20457;-69
2022/11/17 12:11:58;;;;;;;;;;;;;;;;;;10326760;28;20064;-69
2022/11/17 12:16:35;;;;;;;4.37;3.60;;;;;;;;;;10325844;28;20361;-69
2022/11/17 12:21:36;;;;;;;5.00;3.42;;;;;;;;;;10327174;28;20026;-69
2022/11/17 12:26:37;;;;;;;4.00;3.60;;;;;;;;;;10325605;28;20023;-69
2022/11/17 12:31:43;;;;;;;3.55;3.15;;;;;;;;;;10326081;28;20046;-68
2022/11/17 12:37:13;;;;;;;4.35;3.40;;;;;;;;;;10327263;28;20233;-68
2022/11/17 12:42:14;;;;;;;4.15;3.30;;;;;;;;;;10327507;28;20043;-69
2022/11/17 12:47:23;;;;;;;4.20;3.67;;;;;;;;;;10326208;28;20027;-69
2022/11/17 12:53:10;;;;;;;4.15;3.35;;;;;;;;;;10334938;28;20035;-69
2022/11/17 12:58:34;;;;;;;5.32;3.78;;;;;;;;;;10334663;28;20032;-69
2022/11/17 13:03:48;;;;;;;3.60;3.30;;;;;;;;;;10334869;28;20023;-69
2022/11/17 13:09:00;;;;;;;4.95;3.78;;;;;;;;;;10333743;28;20146;-69
2022/11/17 13:14:15;;;;;;;4.07;3.38;;;;;;;;;;10334137;28;20026;-69
2022/11/17 13:19:36;;;;;;;3.88;3.45;;;;;;;;;;10333427;28;20442;-69
2022/11/17 13:24:40;;;;;;;4.82;4.15;;;;;;;;;;10333226;28;20440;-69
2022/11/17 13:29:40;;;;;;;4.72;3.47;;;;;;;;;;10332843;28;20050;-67
2022/11/17 13:34:51;;;;;;;4.43;3.20;;;;;;;;;;10332776;28;20481;-69
2022/11/17 13:40:20;;;;;;;4.05;3.47;;;;;;;;;;10331227;28;20034;-68
2022/11/17 13:45:21;;;;;;;5.22;3.42;;;;;;;;;;10331817;28;20030;-70
2022/11/17 13:50:28;;;;;;;4.85;3.33;;;;;;;;;;10332308;28;20038;-69
2022/11/17 13:55:29;;;;;;;3.70;3.33;;;;;;;;;;10332259;28;20109;-68
2022/11/17 14:00:31;;;;;;;3.75;3.03;;;;;;;;;;10330125;28;20042;-69
2022/11/17 14:05:32;;;;;;;3.92;3.38;;;;;;;;;;10330519;28;20027;-69
2022/11/17 14:10:37;;;;;;;4.15;3.55;;;;;;;;;;10331918;28;20085;-69
2022/11/17 14:15:43;;;;;;;3.88;3.47;;;;;;;;;;10330239;28;20037;-69
2022/11/17 14:20:44;;;;;;;3.40;3.10;;;;;;;;;;10330341;28;20470;-69
2022/11/17 14:25:50;;;;;;;6.32;3.50;;;;;;;;;;10329513;28;20033;-69
2022/11/17 14:30:54;;;;;;;5.28;3.50;;;;;;;;;;10330578;28;20050;-69
2022/11/17 14:35:58;;;;;;;4.38;3.20;;;;;;;;;;10330615;28;20488;-69
2022/11/17 14:40:59;;;;;;;4.50;3.60;;;;;;;;;;10329573;28;20050;-69
2022/11/17 14:45:59;;;;;;;3.72;3.42;;;;;;;;;;10329850;28;20355;-69
2022/11/17 14:51:00;;;;;;;5.53;3.45;;;;;;;;;;10328600;28;20033;-69
2022/11/17 14:56:08;;;;;;;7.60;3.83;;;;;;;;;;10327835;28;20360;-68
2022/11/17 15:01:14;;;;;;;15.77;3.95;;;;;;;;;;10329315;28;20387;-64
2022/11/17 15:06:14;;;;;;;34.47;4.78;;;;;;;;;;10328142;28;20033;-61
2022/11/17 15:11:18;;;;;;;20.40;4.47;;;;;;;;;;10328593;28;20477;-60
2022/11/17 15:16:18;;;;;;;62.67;5.70;;;;;;;;;;10329141;28;20485;-61
2022/11/17 15:21:19;;;;;;;39.70;4.50;;;;;;;;;;10328822;28;20050;-61
2022/11/17 15:26:22;;;;;;;16.10;4.40;;;;;;;;;;10328474;28;20493;-60
2022/11/17 15:31:23;;;;;;;35.97;4.72;;;;;;;;;;10327325;28;20050;-59
2022/11/17 15:36:23;;;;;;;16.25;4.15;;;;;;;;;;10328756;28;20026;-59
2022/11/17 15:41:24;;;;;;;9.32;3.85;;;;;;;;;;10327524;28;20023;-61
2022/11/17 15:46:25;;;;;;;9.57;3.65;;;;;;;;;;10328511;28;20033;-59
2022/11/17 15:51:27;;;;;;;16.45;4.28;;;;;;;;;;10327755;28;20050;-61
2022/11/17 15:56:32;;;;;;;13.60;3.75;;;;;;;;;;10327120;28;20033;-60
2022/11/17 16:01:37;;;;;;;8.10;4.03;;;;;;;;;;10327833;28;20050;-60
2022/11/17 16:06:40;;;;;;;6.53;3.55;;;;;;;;;;10327999;28;20389;-60
2022/11/17 16:11:41;;;;;;;11.73;3.65;;;;;;;;;;10327540;28;20456;-60
2022/11/17 16:16:44;;;;;;;9.98;3.33;;;;;;;;;;10328084;28;20042;-60
2022/11/17 16:21:44;;;;;;;5.03;3.38;;;;;;;;;;10327896;28;20023;-60
2022/11/17 16:26:46;;;;;;;11.68;3.75;;;;;;;;;;10325534;28;20026;-60
2022/11/17 16:31:46;;;;;;;5.38;3.22;;;;;;;;;;10327232;28;20071;-59
2022/11/17 16:36:47;;;;;;;5.13;3.15;;;;;;;;;;10325598;28;20046;-59
2022/11/17 16:41:50;;;;;;;7.10;3.90;;;;;;;;;;10326457;28;20084;-60
2022/11/17 16:46:50;;;;;;;7.35;3.55;;;;;;;;;;10327283;28;20031;-60
2022/11/17 16:51:52;;;;;;;5.57;3.97;;;;;;;;;;10326749;28;20053;-60
2022/11/17 16:56:53;;;;;;;8.82;3.85;;;;;;;;;;10327063;28;20034;-59
2022/11/17 17:01:53;;;;;;;5.55;3.50;;;;;;;;;;10327018;28;20019;-59
2022/11/17 17:06:54;;;;;;;4.47;3.80;;;;;;;;;;10326563;28;20026;-60
2022/11/17 17:11:55;;;;;;;6.07;4.07;;;;;;;;;;10325253;28;20045;-59
2022/11/17 17:16:55;;;;;;;9.57;3.80;;;;;;;;;;10325959;28;20077;-61
2022/11/17 17:21:57;;;;;;;5.13;3.85;;;;;;;;;;10326597;28;20034;-59
2022/11/17 17:26:57;;;;;;;6.68;3.85;;;;;;;;;;10325095;28;20037;-60
2022/11/17 17:31:58;;;;;;;3.20;2.90;;;;;;;;;;10322930;28;20509;-59
2022/11/17 17:36:59;;;;;;;5.07;3.90;;;;;;;;;;10329248;28;20474;-59
2022/11/17 17:41:59;;;;;;;6.43;3.95;;;;;;;;;;10330945;28;20030;-58
2022/11/17 17:47:00;;;;;;;8.32;3.67;;;;;;;;;;10331972;28;20030;-59
2022/11/17 17:52:00;;;;;;;6.13;4.28;;;;;;;;;;10333195;28;20266;-59
2022/11/17 17:57:01;;;;;;;7.50;4.47;;;;;;;;;;10332616;28;20477;-58
2022/11/17 18:02:01;;;;;;;12.75;4.90;;;;;;;;;;10332454;28;20026;-59
2022/11/17 18:07:02;;;;;;;7.03;4.68;;;;;;;;;;10332033;28;20038;-59
2022/11/17 18:12:03;;;;;;;6.78;5.03;;;;;;;;;;10331524;28;20037;-57
2022/11/17 18:17:03;;;;;;;7.38;5.22;;;;;;;;;;10331584;28;20363;-56
2022/11/17 18:22:04;;;;;;;10.23;5.95;;;;;;;;;;10331007;28;20030;-57
2022/11/17 18:27:04;;;;;;;10.40;6.57;;;;;;;;;;10330052;28;20113;-55
2022/11/17 18:32:05;;;;;;;14.15;6.40;;;;;;;;;;10330895;28;20039;-57
2022/11/17 18:37:06;;;;;;;12.70;5.78;;;;;;;;;;10331012;28;20029;-57
2022/11/17 18:42:07;;;;;;;9.35;6.47;;;;;;;;;;10330502;28;20478;-57
2022/11/17 18:47:07;;;;;;;10.57;6.50;;;;;;;;;;10330509;28;20023;-56
2022/11/17 18:52:08;;;;;;;9.77;6.35;;;;;;;;;;10329961;28;20034;-56
2022/11/17 18:57:09;;;;;;;8.30;6.38;;;;;;;;;;10330625;28;20031;-54
2022/11/17 19:02:09;;;;;;;12.73;7.47;;;;;;;;;;10330229;28;20054;-53
2022/11/17 19:07:10;;;;;;;13.50;7.45;;;;;;;;;;10329960;28;20026;-54
2022/11/17 19:12:11;;;;;;;9.85;6.68;;;;;;;;;;10329398;28;20089;-57
2022/11/17 19:17:11;;;;;;;15.68;6.72;;;;;;;;;;10329655;28;20033;-55
2022/11/17 19:22:12;;;;;;;13.45;6.13;;;;;;;;;;10328058;28;20557;-61
2022/11/17 19:27:13;;;;;;;13.38;6.90;;;;;;;;;;10328825;28;20489;-56
2022/11/17 19:32:13;;;;;;;9.48;6.45;;;;;;;;;;10328580;28;20509;-59
2022/11/17 19:37:14;;;;;;;12.38;7.13;;;;;;;;;;10328581;28;20026;-58
2022/11/17 19:42:14;;;;;;;14.18;6.95;;;;;;;;;;10328210;28;20073;-60
2022/11/17 19:47:15;;;;;;;17.10;7.32;;;;;;;;;;10326039;28;20026;-60
2022/11/17 19:52:15;;;;;;;24.45;6.57;;;;;;;;;;10327397;28;20088;-59
2022/11/17 19:57:16;;;;;;;12.35;6.35;;;;;;;;;;10328038;28;20022;-60
2022/11/17 20:02:17;;;;;;;12.43;6.45;;;;;;;;;;10327773;28;20105;-60
2022/11/17 20:07:17;;;;;;;10.65;6.07;;;;;;;;;;10327929;28;20027;-60
2022/11/17 20:12:18;;;;;;;14.27;6.10;;;;;;;;;;10327003;28;20041;-60
2022/11/17 20:17:18;;;;;;;11.25;5.68;;;;;;;;;;10326125;28;20093;-59
2022/11/17 20:22:19;;;;;;;12.95;6.22;;;;;;;;;;10326991;28;20053;-60
2022/11/17 20:27:20;;;;;;;13.70;6.50;;;;;;;;;;10327070;28;20026;-60
2022/11/17 20:32:20;;;;;;;9.63;5.63;;;;;;;;;;10325589;28;20046;-60
2022/11/17 20:37:21;;;;;;;13.27;6.30;;;;;;;;;;10322881;28;20213;-60
2022/11/17 20:42:22;;;;;;;12.10;5.88;;;;;;;;;;10323578;28;20038;-60
2022/11/17 20:47:26;;;;;;;10.57;5.57;;;;;;;;;;10324852;28;20039;-60
2022/11/17 20:52:27;;;;;;;10.55;5.50;;;;;;;;;;10324114;28;20030;-61
2022/11/17 20:57:27;;;;;;;11.35;6.10;;;;;;;;;;10323556;28;20396;-60
2022/11/17 21:02:28;;;;;;;14.20;6.28;;;;;;;;;;10325470;28;20030;-60
2022/11/17 21:07:28;;;;;;;10.52;6.07;;;;;;;;;;10325990;28;20026;-60
2022/11/17 21:12:29;;;;;;;7.47;5.32;;;;;;;;;;10332271;28;20022;-60
2022/11/17 21:22:50;;;;;;;8.27;5.78;;;;;;;;;;10332952;28;20034;-61
2022/11/17 21:27:51;;;;;;;9.77;5.18;;;;;;;;;;10333425;28;20035;-61
2022/11/17 21:32:52;;;;;;;7.57;5.47;;;;;;;;;;10332972;28;20038;-61
2022/11/17 21:37:53;;;;;;;13.00;6.40;;;;;;;;;;10332901;28;20038;-61
2022/11/17 21:42:53;;;;;;;9.52;5.57;;;;;;;;;;10333015;28;20474;-60
2022/11/17 21:47:57;;;;;;;9.60;5.20;;;;;;;;;;10332648;28;20537;-60
2022/11/17 21:52:57;;;;;;;6.93;5.47;;;;;;;;;;10332532;28;20285;-60
2022/11/17 21:57:58;;;;;;;12.57;6.20;;;;;;;;;;10332781;28;20285;-61
2022/11/17 22:02:59;;;;;;;12.20;5.60;;;;;;;;;;10331486;28;20081;-60
2022/11/17 22:07:59;;;;;;;12.10;6.05;;;;;;;;;;10331607;28;20026;-60
2022/11/17 22:13:00;;;;;;;10.10;6.03;;;;;;;;;;10332014;28;20026;-60
2022/11/17 22:18:01;;;;;;;9.43;6.68;;;;;;;;;;10331763;28;20054;-60
2022/11/17 22:23:01;;;;;;;15.27;5.82;;;;;;;;;;10330037;28;20078;-60
2022/11/17 22:28:02;;;;;;;10.65;5.57;;;;;;;;;;10331075;28;20037;-60
2022/11/17 22:33:03;;;;;;;6.45;5.32;;;;;;;;;;10330609;28;20042;-61
2022/11/17 22:38:03;;;;;;;12.13;5.90;;;;;;;;;;10331018;28;20039;-61
2022/11/17 22:43:07;;;;;;;11.63;6.60;;;;;;;;;;10330699;28;20022;-60
2022/11/17 22:48:07;;;;;;;8.43;5.93;;;;;;;;;;10329741;28;20026;-60
2022/11/17 22:53:08;;;;;;;20.98;6.40;;;;;;;;;;10329778;28;20034;-60
2022/11/17 22:58:09;;;;;;;17.13;6.43;;;;;;;;;;10327598;28;20034;-60
2022/11/17 23:03:11;;;;;;;11.10;6.65;;;;;;;;;;10326825;28;20124;-60
2022/11/17 23:08:11;;;;;;;10.75;6.05;;;;;;;;;;10327833;28;20474;-55
2022/11/17 23:13:12;;;;;;;19.63;6.63;;;;;;;;;;10328839;28;20027;-51
2022/11/17 23:18:12;;;;;;;20.95;6.65;;;;;;;;;;10328277;28;20034;-51
2022/11/17 23:23:13;;;;;;;17.95;6.40;;;;;;;;;;10328765;28;20026;-52
2022/11/17 23:28:14;;;;;;;18.23;6.45;;;;;;;;;;10328240;28;20026;-54
2022/11/17 23:33:14;;;;;;;22.33;6.80;;;;;;;;;;10333833;28;20050;-57
2022/11/17 23:38:15;;;;;;;28.98;5.78;;;;;;;;;;10328296;28;20080;-53
2022/11/17 23:43:15;;;;;;;17.00;5.72;;;;;;;;;;10328286;28;20056;-48
2022/11/17 23:48:16;;;;;;;13.38;5.68;;;;;;;;;;10328219;28;20422;-52
2022/11/17 23:53:17;;;;;;;13.38;5.43;;;;;;;;;;10326672;28;20030;-48
2022/11/17 23:58:17;;;;;;;11.68;6.00;;;;;;;;;;10328192;28;20189;-55
